Time;durP1;ratioP1;P1;durP2;ratioP2;P2;SDS_P1;SDS_P2;PMS_P1;PMS_P2;Temp;Humidity;BMP_temperature;BMP_pressure;BME280_temperature;BME280_humidity;BME280_pressure;Samples;Min_cycle;Max_cycle;Signal;HPM_P1;HPM_P2
2024/03/27 00:01:41;;;;;;;18.00;9.23;;;;;;;7.67;91.88;98082.13;5122996;28;20525;-73
2024/03/27 00:04:12;;;;;;;16.52;8.68;;;;;;;7.92;90.25;98082.25;5121877;28;20081;-74
2024/03/27 00:06:42;;;;;;;17.95;9.07;;;;;;;7.96;89.22;98081.09;5122693;28;20245;-74
2024/03/27 00:09:13;;;;;;;14.48;8.65;;;;;;;8.01;89.38;98073.84;5120613;28;20026;-71
2024/03/27 00:11:43;;;;;;;17.88;8.82;;;;;;;8.00;88.40;98072.16;5137169;28;20034;-70
2024/03/27 00:14:14;;;;;;;17.08;8.48;;;;;;;7.94;88.96;98069.13;5122001;28;20087;-74
2024/03/27 00:16:44;;;;;;;16.40;8.55;;;;;;;7.88;89.19;98065.16;5119864;28;20046;-71
2024/03/27 00:19:16;;;;;;;17.52;9.23;;;;;;;7.73;89.36;98057.53;5122925;28;20047;-73
2024/03/27 00:21:46;;;;;;;15.98;8.82;;;;;;;7.65;90.77;98055.41;5119337;28;20182;-72
2024/03/27 00:24:17;;;;;;;15.90;9.10;;;;;;;7.64;90.70;98052.91;5123524;28;20490;-73
2024/03/27 00:26:47;;;;;;;17.27;9.38;;;;;;;7.27;92.91;98039.75;5121861;28;20550;-74
2024/03/27 00:29:18;;;;;;;15.88;9.13;;;;;;;7.37;93.19;98029.50;5122548;28;20481;-74
2024/03/27 00:31:49;;;;;;;20.17;9.10;;;;;;;7.39;91.09;98030.25;5122700;28;20039;-72
2024/03/27 00:34:19;;;;;;;16.35;9.27;;;;;;;7.43;91.44;98023.94;5122052;28;20034;-72
2024/03/27 00:36:49;;;;;;;14.90;7.13;;;;;;;7.44;90.06;98023.00;5121023;28;20039;-74
2024/03/27 00:39:20;;;;;;;17.23;9.27;;;;;;;7.20;91.44;98035.88;5115839;28;20045;-75
2024/03/27 00:41:50;;;;;;;17.17;9.55;;;;;;;7.15;93.21;98019.75;5117336;28;20035;-73
2024/03/27 00:44:21;;;;;;;18.38;9.82;;;;;;;6.96;94.11;98019.22;5124514;28;20592;-73
2024/03/27 00:46:52;;;;;;;18.25;9.57;;;;;;;7.09;92.90;98022.75;5122747;28;20049;-72
2024/03/27 00:49:22;;;;;;;19.52;9.32;;;;;;;7.22;91.91;98020.09;5122258;28;20034;-74
2024/03/27 00:51:52;;;;;;;18.23;8.82;;;;;;;7.25;91.01;98026.84;5118803;28;20028;-72
2024/03/27 00:54:23;;;;;;;16.50;8.82;;;;;;;7.20;90.92;98015.09;5120649;28;20019;-73
2024/03/27 00:56:54;;;;;;;16.70;8.77;;;;;;;7.06;89.98;98010.78;5124090;28;20110;-71
2024/03/27 00:59:25;;;;;;;17.92;9.05;;;;;;;6.84;91.39;98019.97;5121022;28;20027;-74
2024/03/27 01:01:55;;;;;;;18.55;8.77;;;;;;;6.84;91.70;98023.41;5121023;28;20027;-73
2024/03/27 01:04:25;;;;;;;14.35;8.82;;;;;;;6.65;93.44;98025.47;5119817;28;20034;-73
2024/03/27 01:06:56;;;;;;;18.38;8.95;;;;;;;6.49;95.44;98029.06;5120168;28;20034;-73
2024/03/27 01:09:26;;;;;;;17.63;9.48;;;;;;;6.45;96.53;98014.63;5122676;28;20105;-74
2024/03/27 01:11:56;;;;;;;17.08;9.05;;;;;;;6.61;96.15;98010.16;5123128;28;20088;-71
2024/03/27 01:14:26;;;;;;;16.83;9.27;;;;;;;6.56;95.07;98002.66;5121292;28;20086;-73
2024/03/27 01:16:57;;;;;;;18.05;9.38;;;;;;;6.58;95.57;97999.97;5122080;28;20041;-71
2024/03/27 01:19:28;;;;;;;18.08;9.07;;;;;;;6.67;95.17;97999.41;5122584;28;20134;-72
2024/03/27 01:21:59;;;;;;;16.05;8.48;;;;;;;6.59;94.10;97994.69;5124019;28;20069;-72
2024/03/27 01:24:29;;;;;;;15.32;8.30;;;;;;;6.65;94.09;97993.47;5123531;28;20066;-73
2024/03/27 01:26:59;;;;;;;20.33;9.80;;;;;;;6.61;93.27;97989.41;5123867;28;20027;-72
2024/03/27 01:29:30;;;;;;;15.48;8.60;;;;;;;6.64;93.27;97989.22;5122124;28;20035;-71
2024/03/27 01:32:03;;;;;;;15.35;7.97;;;;;;;6.57;92.63;97993.13;5137307;28;20073;-72
2024/03/27 01:34:33;;;;;;;19.05;9.55;;;;;;;6.39;95.44;97986.47;5107969;28;20027;-73
2024/03/27 01:37:04;;;;;;;16.92;8.50;;;;;;;6.35;95.88;97982.38;5121888;28;20031;-72
2024/03/27 01:39:34;;;;;;;16.98;8.77;;;;;;;6.46;96.41;97979.97;5120783;28;20090;-73
2024/03/27 01:42:04;;;;;;;17.33;8.40;;;;;;;6.63;94.22;97984.97;5121327;28;20030;-73
2024/03/27 01:44:35;;;;;;;15.88;8.73;;;;;;;6.67;94.97;97994.22;5120497;28;20089;-73
2024/03/27 01:47:09;;;;;;;17.33;8.20;;;;;;;6.64;93.90;98007.38;5122602;28;20039;-74
2024/03/27 01:49:39;;;;;;;15.23;8.38;;;;;;;6.66;94.68;98011.56;5119967;28;20045;-71
2024/03/27 01:52:11;;;;;;;15.63;8.10;;;;;;;6.55;93.60;98002.75;5121315;28;20042;-74
2024/03/27 01:54:42;;;;;;;13.90;7.80;;;;;;;6.42;94.99;97996.66;5122350;28;20035;-74
2024/03/27 01:57:13;;;;;;;20.52;9.02;;;;;;;6.36;96.09;97991.81;5120918;28;20024;-71
2024/03/27 01:59:44;;;;;;;16.85;8.63;;;;;;;6.41;96.61;97997.56;5123174;28;20022;-72
2024/03/27 02:02:15;;;;;;;17.65;8.20;;;;;;;6.46;94.79;97992.94;5118504;28;20070;-73
2024/03/27 02:04:45;;;;;;;18.75;7.85;;;;;;;6.54;95.30;97990.69;5122047;28;20451;-72
2024/03/27 02:07:15;;;;;;;15.48;7.50;;;;;;;6.35;95.70;97993.59;5122415;28;20034;-74
2024/03/27 02:09:46;;;;;;;15.52;8.15;;;;;;;6.38;95.86;97975.25;5119238;28;20082;-73
2024/03/27 02:12:16;;;;;;;14.75;7.30;;;;;;;6.31;96.46;97973.97;5117150;28;20118;-74
2024/03/27 02:14:46;;;;;;;13.25;7.43;;;;;;;6.38;94.28;97971.78;5127423;28;20037;-72
2024/03/27 02:17:17;;;;;;;16.35;7.55;;;;;;;6.27;95.37;97964.66;5131376;28;20275;-72
2024/03/27 02:19:47;;;;;;;15.43;7.80;;;;;;;6.25;95.22;97956.16;5130713;28;20102;-73
2024/03/27 02:22:18;;;;;;;14.80;7.50;;;;;;;6.17;96.76;97942.81;5129081;28;20031;-73
2024/03/27 02:24:54;;;;;;;14.48;7.00;;;;;;;6.25;96.53;97942.38;5130241;28;20071;-71
2024/03/27 02:27:24;;;;;;;16.48;7.63;;;;;;;6.20;96.28;97939.19;5127063;28;20026;-73
2024/03/27 02:29:54;;;;;;;14.10;7.03;;;;;;;6.15;97.02;97933.47;5129176;28;20026;-74
2024/03/27 02:32:25;;;;;;;15.88;8.38;;;;;;;6.16;97.03;97935.13;5127603;28;20055;-73
2024/03/27 02:34:56;;;;;;;12.68;6.47;;;;;;;6.09;96.92;97933.84;5127779;28;20441;-72
2024/03/27 02:37:26;;;;;;;12.38;6.35;;;;;;;6.19;96.10;97937.53;5130579;28;20026;-72
2024/03/27 02:39:56;;;;;;;13.85;7.28;;;;;;;6.20;95.56;97941.78;5124598;28;20026;-72
2024/03/27 02:42:27;;;;;;;12.90;6.65;;;;;;;6.17;93.63;97941.97;5127938;28;20558;-72
2024/03/27 02:44:57;;;;;;;12.93;6.90;;;;;;;6.14;94.75;97936.97;5128225;28;20114;-73
2024/03/27 02:47:27;;;;;;;14.30;7.07;;;;;;;5.97;96.32;97937.16;5125353;28;20502;-73
2024/03/27 02:49:58;;;;;;;14.10;6.90;;;;;;;5.84;97.50;97936.19;5128222;28;20073;-73
2024/03/27 02:52:28;;;;;;;13.60;7.25;;;;;;;5.84;96.78;97928.44;5123675;28;20521;-73
2024/03/27 02:54:58;;;;;;;12.05;5.93;;;;;;;5.85;96.71;97919.72;5127862;28;20447;-74
2024/03/27 02:57:29;;;;;;;13.88;7.03;;;;;;;5.84;97.97;97923.25;5126141;28;20311;-73
2024/03/27 02:59:59;;;;;;;13.85;6.63;;;;;;;5.92;97.69;97928.84;5127899;28;20482;-74
2024/03/27 03:02:29;;;;;;;14.68;6.72;;;;;;;5.96;95.03;97928.56;5125745;28;20034;-74
2024/03/27 03:04:59;;;;;;;14.35;6.22;;;;;;;5.92;94.01;97937.41;5129564;28;20505;-69
2024/03/27 03:07:30;;;;;;;15.10;6.63;;;;;;;5.71;95.83;97938.66;5128987;28;20046;-72
2024/03/27 03:10:00;;;;;;;13.23;6.60;;;;;;;5.74;96.18;97935.06;5129267;28;20022;-69
2024/03/27 03:12:30;;;;;;;12.82;6.75;;;;;;;5.66;96.73;97925.16;5121847;28;20035;-73
2024/03/27 03:15:01;;;;;;;14.48;7.15;;;;;;;5.57;97.57;97914.50;5129875;28;20458;-70
2024/03/27 03:17:31;;;;;;;17.50;8.27;;;;;;;5.51;98.70;97909.63;5126365;28;20023;-72
2024/03/27 03:20:06;;;;;;;12.05;6.30;;;;;;;5.67;97.54;97895.72;5126043;28;20528;-72
2024/03/27 03:22:37;;;;;;;14.75;7.07;;;;;;;5.55;98.10;97893.03;5126396;28;20085;-71
2024/03/27 03:25:07;;;;;;;17.50;7.28;;;;;;;5.67;98.26;97889.69;5127324;28;20026;-70
2024/03/27 03:27:38;;;;;;;13.40;6.78;;;;;;;5.61;98.67;97887.47;5126480;28;20121;-72
2024/03/27 03:30:08;;;;;;;14.10;7.43;;;;;;;5.53;99.36;97897.44;5122113;28;20026;-72
2024/03/27 03:32:38;;;;;;;13.60;7.18;;;;;;;5.50;100.00;97888.09;5138654;28;20513;-75
2024/03/27 03:35:10;;;;;;;14.00;6.40;;;;;;;5.44;99.42;97872.09;5125074;28;20035;-70
2024/03/27 03:37:41;;;;;;;13.68;7.25;;;;;;;5.41;99.66;97860.16;5125575;28;20049;-73
2024/03/27 03:40:12;;;;;;;14.15;6.63;;;;;;;5.64;98.99;97877.78;5126015;28;20026;-74
2024/03/27 03:42:43;;;;;;;13.82;7.40;;;;;;;5.69;97.42;97885.25;5124851;28;20038;-72
2024/03/27 03:45:13;;;;;;;12.73;7.00;;;;;;;5.69;97.26;97887.84;5123830;28;20041;-71
2024/03/27 03:47:43;;;;;;;16.75;7.85;;;;;;;5.73;96.76;97889.34;5125316;28;20023;-72
2024/03/27 03:50:14;;;;;;;13.52;6.70;;;;;;;5.62;97.05;97876.19;5140913;28;20031;-69
2024/03/27 03:52:44;;;;;;;15.32;7.38;;;;;;;5.51;99.00;97863.03;5141257;28;20046;-72
2024/03/27 03:55:14;;;;;;;13.52;7.40;;;;;;;5.37;99.65;97854.41;5126652;28;20023;-72
2024/03/27 03:57:44;;;;;;;14.27;7.25;;;;;;;5.53;100.00;97851.66;5114686;28;20811;-73
2024/03/27 04:00:20;;;;;;;14.18;7.40;;;;;;;5.62;99.59;97845.97;5114147;28;20030;-74
2024/03/27 04:02:51;;;;;;;13.55;7.10;;;;;;;5.58;98.74;97847.03;5125486;28;20029;-72
2024/03/27 04:05:22;;;;;;;14.48;6.90;;;;;;;5.68;98.46;97844.72;5122340;28;20035;-71
2024/03/27 04:07:52;;;;;;;18.30;7.70;;;;;;;5.71;96.67;97847.16;5125726;28;20034;-72
2024/03/27 04:10:22;;;;;;;12.55;6.63;;;;;;;5.58;98.70;97839.28;5122425;28;20518;-72
2024/03/27 04:12:53;;;;;;;15.73;7.80;;;;;;;5.61;98.30;97840.84;5128432;28;20287;-72
2024/03/27 04:15:23;;;;;;;12.90;7.13;;;;;;;5.61;98.80;97843.44;5123391;28;20030;-72
2024/03/27 04:17:53;;;;;;;13.80;7.15;;;;;;;5.67;98.00;97848.25;5129473;28;20521;-72
2024/03/27 04:20:24;;;;;;;13.68;6.85;;;;;;;5.58;97.98;97835.88;5122794;28;20109;-74
2024/03/27 04:22:54;;;;;;;14.02;6.95;;;;;;;5.64;97.65;97838.06;5124490;28;20410;-73
2024/03/27 04:25:25;;;;;;;10.52;5.93;;;;;;;5.67;98.28;97836.16;5120482;28;20034;-73
2024/03/27 04:27:55;;;;;;;14.48;7.00;;;;;;;5.53;97.93;97836.13;5126752;28;20039;-73
2024/03/27 04:30:26;;;;;;;12.75;7.05;;;;;;;5.60;98.61;97836.59;5123023;28;20031;-72
2024/03/27 04:32:56;;;;;;;12.85;6.60;;;;;;;5.67;98.42;97827.53;5140510;28;20023;-72
2024/03/27 04:35:27;;;;;;;15.18;6.82;;;;;;;5.61;97.53;97827.91;5123604;28;20082;-72
2024/03/27 04:37:57;;;;;;;11.60;6.57;;;;;;;5.49;99.06;97829.47;5141108;28;20026;-73
2024/03/27 04:40:27;;;;;;;11.88;6.40;;;;;;;5.41;98.42;97826.50;5121161;28;20041;-75
2024/03/27 04:42:57;;;;;;;12.30;6.38;;;;;;;5.27;99.66;97830.81;5123388;28;20034;-71
2024/03/27 04:45:28;;;;;;;12.57;6.05;;;;;;;5.26;100.00;97826.56;5125838;28;20031;-72
2024/03/27 04:47:58;;;;;;;16.35;6.32;;;;;;;5.27;99.75;97824.78;5126180;28;20031;-71
2024/03/27 04:50:28;;;;;;;11.77;6.40;;;;;;;5.22;99.80;97821.66;5137317;28;20055;-72
2024/03/27 04:52:59;;;;;;;11.40;6.40;;;;;;;5.24;99.96;97818.06;5118029;28;20030;-70
2024/03/27 04:55:29;;;;;;;13.60;6.25;;;;;;;5.22;100.00;97811.28;5123740;28;20078;-72
2024/03/27 04:57:59;;;;;;;12.13;6.18;;;;;;;5.28;99.32;97811.78;5128132;28;20039;-73
2024/03/27 05:00:30;;;;;;;11.98;6.25;;;;;;;5.39;98.75;97811.97;5127601;28;20066;-73
2024/03/27 05:03:00;;;;;;;12.10;6.20;;;;;;;5.29;97.39;97823.78;5123647;28;20356;-72
2024/03/27 05:05:30;;;;;;;13.95;6.70;;;;;;;5.12;98.87;97817.94;5119128;28;20090;-74
2024/03/27 05:08:01;;;;;;;13.40;6.40;;;;;;;5.33;99.08;97801.97;5122607;28;20066;-70
2024/03/27 05:10:31;;;;;;;12.88;6.57;;;;;;;5.27;98.57;97810.09;5123700;28;20394;-72
2024/03/27 05:13:02;;;;;;;12.00;6.90;;;;;;;5.18;98.75;97813.22;5120484;28;20071;-73
2024/03/27 05:15:32;;;;;;;12.77;6.43;;;;;;;5.19;99.86;97814.88;5122601;28;20033;-74
2024/03/27 05:18:03;;;;;;;12.55;6.22;;;;;;;5.19;99.57;97819.25;5123101;28;20027;-72
2024/03/27 05:20:33;;;;;;;14.27;6.97;;;;;;;5.27;99.29;97817.88;5122733;28;20394;-73
2024/03/27 05:23:03;;;;;;;14.00;6.53;;;;;;;5.26;99.84;97813.63;5119696;28;20153;-72
2024/03/27 05:25:33;;;;;;;11.75;6.55;;;;;;;5.30;99.38;97828.03;5125912;28;20117;-72
2024/03/27 05:28:04;;;;;;;13.05;6.50;;;;;;;5.45;98.22;97822.81;5124905;28;20027;-71
2024/03/27 05:30:35;;;;;;;12.48;5.82;;;;;;;5.50;98.35;97815.59;5123118;28;20051;-73
2024/03/27 05:33:07;;;;;;;11.75;5.75;;;;;;;5.53;96.06;97806.78;5122490;28;20038;-72
2024/03/27 05:35:37;;;;;;;12.93;6.05;;;;;;;5.65;95.15;97812.09;5125135;28;20023;-74
2024/03/27 05:38:07;;;;;;;10.43;5.72;;;;;;;5.48;95.11;97809.69;5106955;28;20073;-71
2024/03/27 05:40:38;;;;;;;11.80;6.00;;;;;;;5.58;94.93;97810.78;5126744;28;20040;-71
2024/03/27 05:43:08;;;;;;;12.65;6.75;;;;;;;5.60;96.08;97821.06;5123546;28;20023;-72
2024/03/27 05:45:38;;;;;;;14.50;7.55;;;;;;;5.77;97.28;97826.88;5137677;28;20441;-74
2024/03/27 05:48:08;;;;;;;16.33;7.25;;;;;;;5.84;96.88;97827.38;5126312;28;20023;-70
2024/03/27 05:50:39;;;;;;;14.95;6.97;;;;;;;5.93;96.17;97834.63;5125420;28;20039;-73
2024/03/27 05:53:09;;;;;;;13.45;6.88;;;;;;;5.95;97.71;97830.97;5124262;28;20031;-74
2024/03/27 05:55:39;;;;;;;12.90;6.80;;;;;;;5.98;97.16;97828.22;5128733;28;20049;-74
2024/03/27 05:58:09;;;;;;;12.40;6.55;;;;;;;6.19;97.30;97829.50;5126414;28;20023;-71
2024/03/27 06:00:40;;;;;;;12.43;6.70;;;;;;;6.30;96.77;97828.81;5119843;28;20081;-72
2024/03/27 06:03:10;;;;;;;14.43;7.28;;;;;;;6.34;95.50;97831.13;5127644;28;20015;-72
2024/03/27 06:05:41;;;;;;;13.18;6.82;;;;;;;6.41;96.11;97831.59;5129932;28;20442;-72
2024/03/27 06:08:11;;;;;;;12.27;6.97;;;;;;;6.43;95.23;97838.31;5132242;28;20049;-73
2024/03/27 06:10:47;;;;;;;13.38;6.57;;;;;;;6.60;96.76;97852.84;5123675;28;20046;-72
2024/03/27 06:13:18;;;;;;;13.50;7.30;;;;;;;6.67;94.53;97849.78;5128877;28;20027;-71
2024/03/27 06:15:49;;;;;;;12.43;7.00;;;;;;;6.85;93.63;97845.16;5122855;28;20035;-72
2024/03/27 06:18:19;;;;;;;12.23;7.03;;;;;;;7.02;92.81;97837.09;5125603;28;20038;-72
2024/03/27 06:20:49;;;;;;;13.00;7.05;;;;;;;7.01;92.34;97835.44;5128317;28;20035;-74
2024/03/27 06:23:20;;;;;;;12.55;6.63;;;;;;;7.08;92.60;97839.31;5126039;28;20023;-73
2024/03/27 06:25:57;;;;;;;13.65;6.95;;;;;;;7.04;92.18;97843.03;5132060;28;20038;-73
2024/03/27 06:28:28;;;;;;;11.82;6.50;;;;;;;7.10;92.23;97833.09;5127808;28;20114;-74
2024/03/27 06:30:59;;;;;;;12.48;6.70;;;;;;;7.12;92.13;97851.16;5131263;28;20485;-72
2024/03/27 06:33:30;;;;;;;12.98;6.78;;;;;;;7.20;91.72;97860.13;5126892;28;20027;-74
2024/03/27 06:36:00;;;;;;;15.60;7.32;;;;;;;7.33;91.69;97863.59;5127064;28;20106;-71
2024/03/27 06:38:30;;;;;;;12.35;6.53;;;;;;;7.45;92.28;97865.34;5130124;28;20022;-71
2024/03/27 06:41:02;;;;;;;10.95;6.50;;;;;;;7.60;92.19;97849.59;5118928;28;20029;-70
2024/03/27 06:43:33;;;;;;;12.23;6.40;;;;;;;7.85;92.45;97856.56;5130126;28;20019;-72
2024/03/27 06:46:03;;;;;;;11.70;6.50;;;;;;;7.94;91.35;97848.13;5132272;28;20042;-73
2024/03/27 06:48:43;;;;;;;12.65;6.95;;;;;;;8.09;89.45;97844.47;5129095;28;20027;-73
2024/03/27 06:51:13;;;;;;;12.90;6.40;;;;;;;8.21;89.77;97851.47;5129159;28;20031;-73
2024/03/27 06:53:44;;;;;;;12.70;6.75;;;;;;;8.16;88.53;97838.75;5125808;28;20399;-73
2024/03/27 06:56:14;;;;;;;15.23;6.57;;;;;;;8.23;88.30;97832.19;5121954;28;20028;-74
2024/03/27 06:58:44;;;;;;;10.68;6.10;;;;;;;8.45;88.53;97834.97;5124351;28;20089;-73
2024/03/27 07:01:15;;;;;;;14.77;6.50;;;;;;;8.35;87.69;97838.34;5123443;28;20418;-73
2024/03/27 07:03:45;;;;;;;11.27;5.95;;;;;;;8.40;88.25;97826.66;5143121;28;20046;-73
2024/03/27 07:06:15;;;;;;;12.60;6.55;;;;;;;8.60;88.61;97823.47;5133916;28;20676;-72
2024/03/27 07:08:45;;;;;;;10.65;6.00;;;;;;;8.55;88.60;97820.34;5126546;28;20031;-74
2024/03/27 07:11:16;;;;;;;12.38;6.43;;;;;;;8.74;88.88;97809.47;5129217;28;20042;-71
2024/03/27 07:13:46;;;;;;;10.30;6.10;;;;;;;9.07;88.16;97813.03;5127157;28;20035;-73
2024/03/27 07:16:16;;;;;;;10.55;6.07;;;;;;;10.54;83.03;97812.03;5133163;28;20102;-72
2024/03/27 07:18:47;;;;;;;9.85;5.45;;;;;;;12.83;74.85;97801.03;5128715;28;20166;-74
2024/03/27 07:21:17;;;;;;;10.15;5.45;;;;;;;13.61;73.29;97810.44;5130021;28;20050;-72
2024/03/27 07:23:47;;;;;;;10.40;5.68;;;;;;;13.79;68.51;97815.81;5142757;28;20065;-73
2024/03/27 07:26:17;;;;;;;10.65;5.63;;;;;;;13.08;72.45;97813.66;5130172;28;20023;-73
2024/03/27 07:28:48;;;;;;;7.43;4.78;;;;;;;14.37;69.23;97807.63;5131976;28;20039;-74
2024/03/27 07:31:18;;;;;;;8.70;4.60;;;;;;;15.45;64.10;97805.66;5126449;28;20031;-73
2024/03/27 07:33:48;;;;;;;7.97;4.90;;;;;;;16.38;61.44;97806.63;5128395;28;20031;-73
2024/03/27 07:36:19;;;;;;;7.75;5.05;;;;;;;16.60;64.07;97813.97;5124037;28;20151;-75
2024/03/27 07:38:50;;;;;;;9.65;4.90;;;;;;;16.88;60.69;97812.75;5123921;28;20067;-75
2024/03/27 07:41:20;;;;;;;9.95;4.75;;;;;;;15.93;63.00;97824.47;5121665;28;20085;-73
2024/03/27 07:43:50;;;;;;;8.13;5.07;;;;;;;16.08;61.47;97814.97;5120759;28;20027;-73
2024/03/27 07:46:21;;;;;;;7.85;4.50;;;;;;;15.77;62.54;97802.44;5139342;28;20110;-76
2024/03/27 07:48:52;;;;;;;8.15;5.05;;;;;;;16.74;61.35;97797.53;5125959;28;20104;-73
2024/03/27 07:51:23;;;;;;;6.22;4.43;;;;;;;16.95;61.17;97809.28;5124491;28;20038;-73
2024/03/27 07:53:53;;;;;;;6.63;4.45;;;;;;;17.59;58.33;97801.50;5122735;28;20030;-75
2024/03/27 07:56:24;;;;;;;7.72;5.20;;;;;;;18.05;56.98;97782.28;5124634;28;20114;-75
2024/03/27 07:58:54;;;;;;;8.77;4.35;;;;;;;19.75;54.35;97764.28;5125255;28;20026;-73
2024/03/27 08:01:24;;;;;;;7.93;4.95;;;;;;;18.93;55.41;97774.81;5124218;28;20291;-74
2024/03/27 08:03:54;;;;;;;6.05;4.15;;;;;;;19.45;54.78;97775.78;5126710;28;20029;-76
2024/03/27 08:06:25;;;;;;;7.20;4.20;;;;;;;19.32;55.77;97770.28;5122690;28;20403;-75
2024/03/27 08:08:55;;;;;;;6.22;4.15;;;;;;;19.08;54.55;97773.06;5122233;28;20396;-76
2024/03/27 08:11:25;;;;;;;8.00;4.17;;;;;;;19.59;54.92;97766.28;5122377;28;20114;-75
2024/03/27 08:14:04;;;;;;;8.45;4.22;;;;;;;20.73;53.09;97779.78;5122100;28;20298;-75
2024/03/27 08:16:35;;;;;;;6.38;4.18;;;;;;;20.91;52.47;97772.28;5123609;28;20053;-74
2024/03/27 08:19:05;;;;;;;6.28;4.30;;;;;;;20.22;53.53;97775.44;5122205;28;20023;-75
2024/03/27 08:21:35;;;;;;;6.47;3.67;;;;;;;20.36;55.50;97771.97;5122004;28;20470;-74
2024/03/27 08:24:06;;;;;;;5.93;4.10;;;;;;;20.10;55.39;97766.28;5122271;28;20030;-75
2024/03/27 08:26:36;;;;;;;6.20;4.18;;;;;;;20.24;55.15;97768.09;5119817;28;20290;-74
2024/03/27 08:29:06;;;;;;;6.15;4.20;;;;;;;19.45;55.26;97775.78;5119513;28;20497;-76
2024/03/27 08:31:36;;;;;;;6.40;4.38;;;;;;;19.38;56.65;97764.28;5121099;28;20029;-75
2024/03/27 08:34:10;;;;;;;6.60;4.22;;;;;;;18.26;57.91;97758.75;5126676;28;20023;-74
2024/03/27 08:36:40;;;;;;;6.97;4.20;;;;;;;17.11;59.19;97755.75;5138575;28;20511;-74
2024/03/27 08:39:10;;;;;;;7.75;4.40;;;;;;;16.43;62.55;97756.06;5123025;28;20035;-75
2024/03/27 08:41:41;;;;;;;6.60;4.43;;;;;;;18.45;57.64;97741.66;5124699;28;20027;-73
2024/03/27 08:44:12;;;;;;;13.38;4.80;;;;;;;18.64;58.70;97738.59;5122016;28;20027;-74
2024/03/27 08:46:43;;;;;;;6.20;4.30;;;;;;;18.70;55.34;97741.38;5124255;28;20027;-72
2024/03/27 08:49:14;;;;;;;7.05;4.60;;;;;;;18.05;57.51;97744.44;5122331;28;20058;-73
2024/03/27 08:51:44;;;;;;;7.75;4.45;;;;;;;19.07;56.96;97744.94;5127906;28;20489;-73
2024/03/27 08:54:14;;;;;;;7.50;4.53;;;;;;;19.63;54.91;97741.84;5129385;28;20082;-72
2024/03/27 08:56:45;;;;;;;6.82;4.13;;;;;;;19.38;56.44;97745.72;5125496;28;20031;-72
2024/03/27 08:59:15;;;;;;;7.50;4.45;;;;;;;19.94;56.93;97739.91;5124443;28;20027;-73
2024/03/27 09:01:45;;;;;;;7.18;4.28;;;;;;;18.52;58.08;97758.50;5126442;28;20555;-74
2024/03/27 09:04:16;;;;;;;7.28;4.47;;;;;;;20.59;54.50;97745.28;5120907;28;20030;-74
2024/03/27 09:06:47;;;;;;;6.22;4.18;;;;;;;21.86;52.29;97737.19;5112519;28;20074;-75
2024/03/27 09:09:18;;;;;;;5.78;3.58;;;;;;;23.05;51.02;97737.38;5121368;28;20504;-73
2024/03/27 09:11:48;;;;;;;5.50;3.65;;;;;;;21.45;54.18;97755.69;5123295;28;20027;-74
2024/03/27 09:14:18;;;;;;;5.77;3.83;;;;;;;20.44;55.80;97750.63;5124591;28;20031;-76
2024/03/27 09:16:48;;;;;;;6.00;3.70;;;;;;;20.89;55.98;97763.66;5125548;28;20432;-75
2024/03/27 09:19:19;;;;;;;5.32;3.97;;;;;;;19.94;56.13;97765.59;5127022;28;20031;-74
2024/03/27 09:21:49;;;;;;;5.87;3.87;;;;;;;20.37;56.81;97767.47;5127319;28;20061;-74
2024/03/27 09:24:19;;;;;;;6.00;4.07;;;;;;;20.67;56.03;97760.13;5125577;28;20372;-76
2024/03/27 09:26:50;;;;;;;6.65;4.13;;;;;;;19.90;56.53;97759.81;5125045;28;20689;-74
2024/03/27 09:29:21;;;;;;;6.75;4.15;;;;;;;19.61;58.79;97754.47;5120296;28;20418;-75
2024/03/27 09:31:51;;;;;;;6.13;4.35;;;;;;;20.15;57.46;97757.78;5120525;28;20126;-73
2024/03/27 09:34:21;;;;;;;7.35;3.65;;;;;;;19.22;56.02;97751.16;5120128;28;20030;-73
2024/03/27 09:36:51;;;;;;;5.57;3.95;;;;;;;19.16;57.76;97746.59;5122923;28;20022;-73
2024/03/27 09:39:23;;;;;;;7.43;4.10;;;;;;;19.14;57.82;97740.56;5127075;28;20030;-74
2024/03/27 09:41:53;;;;;;;7.60;4.10;;;;;;;18.13;58.73;97741.75;5124787;28;20397;-75
2024/03/27 09:44:24;;;;;;;7.85;4.47;;;;;;;16.85;61.45;97755.03;5130307;28;20022;-74
2024/03/27 09:46:59;;;;;;;7.30;4.30;;;;;;;16.89;61.62;97757.19;5126133;28;20035;-75
2024/03/27 09:49:30;;;;;;;8.60;4.53;;;;;;;16.59;63.43;97754.28;5125544;28;20561;-75
2024/03/27 09:52:03;;;;;;;6.18;3.92;;;;;;;17.19;62.83;97758.38;5123042;28;20038;-70
2024/03/27 09:54:34;;;;;;;7.82;4.38;;;;;;;17.41;61.93;97766.50;5120221;28;20029;-72
2024/03/27 09:57:05;;;;;;;5.63;3.72;;;;;;;17.27;62.44;97768.91;5113395;28;20029;-74
2024/03/27 09:59:35;;;;;;;6.28;3.97;;;;;;;17.56;64.56;97764.00;5120729;28;20270;-74
2024/03/27 10:02:09;;;;;;;7.57;3.97;;;;;;;17.55;64.12;97757.91;5122666;28;20318;-73
2024/03/27 10:04:40;;;;;;;6.35;3.80;;;;;;;18.11;62.59;97746.38;5116173;28;20564;-70
2024/03/27 10:07:11;;;;;;;7.88;4.32;;;;;;;17.90;62.36;97754.06;5116141;28;20113;-74
2024/03/27 10:09:41;;;;;;;5.57;3.65;;;;;;;17.79;62.29;97747.31;5125258;28;20039;-73
2024/03/27 10:12:12;;;;;;;6.80;3.60;;;;;;;17.78;62.42;97747.47;5126509;28;20084;-75
2024/03/27 10:14:42;;;;;;;5.72;3.65;;;;;;;17.83;62.92;97730.13;5120364;28;20134;-73
2024/03/27 10:17:12;;;;;;;7.18;3.72;;;;;;;17.87;62.55;97728.81;5124361;28;20283;-71
2024/03/27 10:19:42;;;;;;;6.15;3.85;;;;;;;17.79;62.13;97730.66;5125957;28;20035;-71
2024/03/27 10:22:13;;;;;;;6.93;3.80;;;;;;;18.12;62.64;97734.81;5126654;28;20115;-74
2024/03/27 10:24:43;;;;;;;7.03;3.92;;;;;;;17.93;62.63;97727.28;5126026;28;20491;-72
2024/03/27 10:27:13;;;;;;;6.28;3.58;;;;;;;17.92;59.69;97723.84;5124968;28;20031;-75
2024/03/27 10:29:44;;;;;;;7.22;3.85;;;;;;;17.70;62.45;97718.44;5123390;28;20510;-70
2024/03/27 10:32:15;;;;;;;6.18;3.70;;;;;;;17.63;61.88;97720.13;5124989;28;20058;-74
2024/03/27 10:34:47;;;;;;;7.45;4.20;;;;;;;16.95;64.71;97716.94;5126860;28;20538;-71
2024/03/27 10:37:18;;;;;;;7.32;4.10;;;;;;;17.46;62.37;97705.28;5128299;28;20042;-72
2024/03/27 10:39:50;;;;;;;5.20;3.58;;;;;;;17.66;61.19;97701.28;5127539;28;20066;-75
2024/03/27 10:42:28;;;;;;;5.07;3.42;;;;;;;17.59;61.22;97701.13;5127965;28;20023;-74
2024/03/27 10:44:59;;;;;;;6.40;3.55;;;;;;;17.62;59.97;97698.16;5112486;28;20046;-73
2024/03/27 10:47:31;;;;;;;5.85;3.42;;;;;;;17.71;60.75;97698.94;5126774;28;20085;-73
2024/03/27 10:50:04;;;;;;;5.85;3.28;;;;;;;17.61;60.42;97693.00;5128963;28;20046;-74
2024/03/27 10:52:35;;;;;;;5.22;3.20;;;;;;;17.55;60.58;97688.41;5125509;28;20487;-73
2024/03/27 10:55:07;;;;;;;8.50;3.25;;;;;;;17.80;61.51;97690.03;5130299;28;20027;-71
2024/03/27 10:57:38;;;;;;;5.80;3.50;;;;;;;18.06;61.52;97683.50;5145089;28;20026;-72
2024/03/27 11:00:08;;;;;;;5.70;3.55;;;;;;;18.06;60.21;97693.22;5122200;28;20383;-74
2024/03/27 11:02:50;;;;;;;6.10;3.63;;;;;;;18.08;61.75;97705.28;5128377;28;20030;-73
2024/03/27 11:05:21;;;;;;;5.35;3.38;;;;;;;18.20;62.64;97695.16;5127125;28;20019;-74
2024/03/27 11:07:52;;;;;;;6.45;3.60;;;;;;;18.29;62.21;97699.44;5124339;28;20086;-74
2024/03/27 11:10:23;;;;;;;5.95;3.58;;;;;;;18.39;61.89;97700.06;5126628;28;20023;-73
2024/03/27 11:12:57;;;;;;;5.65;3.30;;;;;;;18.44;61.87;97692.41;5122265;28;20039;-73
2024/03/27 11:15:28;;;;;;;7.10;3.88;;;;;;;18.07;60.62;97694.88;5124176;28;20043;-72
2024/03/27 11:17:58;;;;;;;4.50;2.72;;;;;;;18.18;61.66;97689.22;5128439;28;20027;-75
2024/03/27 11:20:29;;;;;;;4.72;3.03;;;;;;;17.83;63.55;97693.13;5123808;28;20034;-73
2024/03/27 11:22:59;;;;;;;6.22;3.25;;;;;;;17.96;62.02;97700.50;5127406;28;20033;-70
2024/03/27 11:25:29;;;;;;;4.00;2.97;;;;;;;18.13;62.13;97710.03;5121897;28;20042;-73
2024/03/27 11:27:59;;;;;;;4.60;2.90;;;;;;;18.31;63.36;97708.84;5129602;28;20038;-73
2024/03/27 11:30:37;;;;;;;6.15;3.58;;;;;;;18.06;63.02;97698.50;5126238;28;20138;-74
2024/03/27 11:33:08;;;;;;;5.78;3.15;;;;;;;18.08;63.79;97696.53;5122574;28;20031;-73
2024/03/27 11:35:40;;;;;;;6.40;3.63;;;;;;;18.11;64.77;97685.59;5126268;28;20518;-75
2024/03/27 11:38:10;;;;;;;7.40;3.42;;;;;;;18.25;64.20;97682.22;5125637;28;20030;-73
2024/03/27 11:40:41;;;;;;;6.90;3.95;;;;;;;18.17;64.98;97683.09;5129153;28;20029;-75
2024/03/27 11:43:11;;;;;;;7.88;3.92;;;;;;;18.22;65.24;97686.06;5125454;28;20070;-72
2024/03/27 11:45:43;;;;;;;7.28;4.18;;;;;;;18.27;64.40;97685.53;5130340;28;20037;-74
2024/03/27 11:48:14;;;;;;;6.68;3.85;;;;;;;18.24;65.27;97683.22;5124708;28;20031;-74
2024/03/27 11:50:44;;;;;;;6.57;3.85;;;;;;;18.54;65.57;97685.91;5125543;28;20042;-71